sensor_id;sensor_type;location;lat;lon;timestamp;P1;P2;P0
72307;PMS5003;60257;42.638;23.376;2023-05-20T00:00:12;32.33;29.67;19.33
72307;PMS5003;60257;42.638;23.376;2023-05-20T00:02:38;30.00;28.00;18.00
72307;PMS5003;60257;42.638;23.376;2023-05-20T00:05:04;21.33;20.33;17.00
72307;PMS5003;60257;42.638;23.376;2023-05-20T00:07:30;21.67;21.33;14.67
72307;PMS5003;60257;42.638;23.376;2023-05-20T00:09:56;29.00;26.33;17.33
72307;PMS5003;60257;42.638;23.376;2023-05-20T00:12:21;30.00;28.67;19.00
72307;PMS5003;60257;42.638;23.376;2023-05-20T00:14:47;29.67;29.33;17.67
72307;PMS5003;60257;42.638;23.376;2023-05-20T00:17:12;29.67;29.67;18.00
72307;PMS5003;60257;42.638;23.376;2023-05-20T00:19:37;28.33;26.67;17.67
72307;PMS5003;60257;42.638;23.376;2023-05-20T00:22:03;28.00;26.00;18.33
72307;PMS5003;60257;42.638;23.376;2023-05-20T00:24:29;33.00;33.00;20.00
72307;PMS5003;60257;42.638;23.376;2023-05-20T00:26:54;26.67;25.33;17.67
72307;PMS5003;60257;42.638;23.376;2023-05-20T00:29:20;30.33;30.33;18.67
72307;PMS5003;60257;42.638;23.376;2023-05-20T00:31:46;29.00;27.00;16.33
72307;PMS5003;60257;42.638;23.376;2023-05-20T00:34:12;27.67;25.00;12.67
72307;PMS5003;60257;42.638;23.376;2023-05-20T00:36:37;22.67;22.00;17.67
72307;PMS5003;60257;42.638;23.376;2023-05-20T00:39:03;30.67;25.33;14.00
72307;PMS5003;60257;42.638;23.376;2023-05-20T00:41:28;29.00;27.00;15.67
72307;PMS5003;60257;42.638;23.376;2023-05-20T00:43:54;28.67;28.00;17.33
72307;PMS5003;60257;42.638;23.376;2023-05-20T00:46:21;26.67;25.00;14.00
72307;PMS5003;60257;42.638;23.376;2023-05-20T00:48:47;31.67;31.33;17.33
72307;PMS5003;60257;42.638;23.376;2023-05-20T00:51:14;27.67;26.33;13.67
72307;PMS5003;60257;42.638;23.376;2023-05-20T00:53:40;27.00;26.67;18.33
72307;PMS5003;60257;42.638;23.376;2023-05-20T00:56:07;31.00;30.00;18.33
72307;PMS5003;60257;42.638;23.376;2023-05-20T00:58:33;30.00;27.67;17.00
72307;PMS5003;60257;42.638;23.376;2023-05-20T01:01:01;26.67;22.67;13.67
72307;PMS5003;60257;42.638;23.376;2023-05-20T01:03:27;30.67;28.00;15.33
72307;PMS5003;60257;42.638;23.376;2023-05-20T01:05:53;3.00;3.00;0.00
72307;PMS5003;60257;42.638;23.376;2023-05-20T01:08:19;22.00;21.00;12.00
72307;PMS5003;60257;42.638;23.376;2023-05-20T01:10:46;27.67;27.00;18.00
72307;PMS5003;60257;42.638;23.376;2023-05-20T01:13:16;30.00;28.00;15.33
72307;PMS5003;60257;42.638;23.376;2023-05-20T01:15:45;27.67;26.33;16.00
72307;PMS5003;60257;42.638;23.376;2023-05-20T01:18:13;22.00;20.67;12.67
72307;PMS5003;60257;42.638;23.376;2023-05-20T01:20:48;26.33;25.33;16.00
72307;PMS5003;60257;42.638;23.376;2023-05-20T01:23:15;19.00;18.33;11.67
72307;PMS5003;60257;42.638;23.376;2023-05-20T01:25:41;30.00;28.00;17.67
72307;PMS5003;60257;42.638;23.376;2023-05-20T01:28:06;23.67;23.67;12.00
72307;PMS5003;60257;42.638;23.376;2023-05-20T01:30:34;31.33;27.33;16.00
72307;PMS5003;60257;42.638;23.376;2023-05-20T01:33:06;28.33;26.33;16.67
72307;PMS5003;60257;42.638;23.376;2023-05-20T01:35:35;27.33;26.67;18.67
72307;PMS5003;60257;42.638;23.376;2023-05-20T01:38:03;33.00;29.00;19.00
72307;PMS5003;60257;42.638;23.376;2023-05-20T01:40:30;25.33;24.00;14.67
72307;PMS5003;60257;42.638;23.376;2023-05-20T01:42:57;26.33;26.00;15.67
72307;PMS5003;60257;42.638;23.376;2023-05-20T01:45:25;26.33;26.33;16.00
72307;PMS5003;60257;42.638;23.376;2023-05-20T01:47:51;28.00;27.33;14.00
72307;PMS5003;60257;42.638;23.376;2023-05-20T01:50:16;28.00;26.67;17.00
72307;PMS5003;60257;42.638;23.376;2023-05-20T01:52:42;24.67;24.67;13.00
72307;PMS5003;60257;42.638;23.376;2023-05-20T01:55:07;26.33;25.33;16.33
72307;PMS5003;60257;42.638;23.376;2023-05-20T01:57:33;23.67;22.33;13.33
72307;PMS5003;60257;42.638;23.376;2023-05-20T01:59:59;31.00;28.67;18.00
72307;PMS5003;60257;42.638;23.376;2023-05-20T02:02:24;28.00;25.00;16.00
72307;PMS5003;60257;42.638;23.376;2023-05-20T02:04:50;22.33;22.33;14.67
72307;PMS5003;60257;42.638;23.376;2023-05-20T02:07:17;27.33;24.00;17.00
72307;PMS5003;60257;42.638;23.376;2023-05-20T02:09:43;25.67;23.00;13.00
72307;PMS5003;60257;42.638;23.376;2023-05-20T02:12:09;33.67;32.33;18.67
72307;PMS5003;60257;42.638;23.376;2023-05-20T02:14:40;24.67;24.67;15.00
72307;PMS5003;60257;42.638;23.376;2023-05-20T02:17:06;23.67;23.67;15.67
72307;PMS5003;60257;42.638;23.376;2023-05-20T02:19:31;22.00;21.67;10.00
72307;PMS5003;60257;42.638;23.376;2023-05-20T02:21:57;21.67;21.67;14.00
72307;PMS5003;60257;42.638;23.376;2023-05-20T02:24:22;24.67;24.33;15.00
72307;PMS5003;60257;42.638;23.376;2023-05-20T02:26:48;25.33;23.67;14.33
72307;PMS5003;60257;42.638;23.376;2023-05-20T02:29:15;23.67;23.67;16.00
72307;PMS5003;60257;42.638;23.376;2023-05-20T02:31:40;28.33;27.33;17.67
72307;PMS5003;60257;42.638;23.376;2023-05-20T02:34:06;25.00;22.33;15.67
72307;PMS5003;60257;42.638;23.376;2023-05-20T02:36:32;25.67;25.33;16.00
72307;PMS5003;60257;42.638;23.376;2023-05-20T02:38:57;22.67;22.00;15.00
72307;PMS5003;60257;42.638;23.376;2023-05-20T02:41:25;27.33;26.33;16.00
72307;PMS5003;60257;42.638;23.376;2023-05-20T02:43:50;31.67;28.00;19.00
72307;PMS5003;60257;42.638;23.376;2023-05-20T02:46:16;30.00;28.33;16.00
72307;PMS5003;60257;42.638;23.376;2023-05-20T02:48:43;28.00;24.33;16.00
72307;PMS5003;60257;42.638;23.376;2023-05-20T02:51:10;27.33;24.00;15.67
72307;PMS5003;60257;42.638;23.376;2023-05-20T02:53:35;30.33;30.00;17.67
72307;PMS5003;60257;42.638;23.376;2023-05-20T02:56:02;22.00;20.67;11.67
72307;PMS5003;60257;42.638;23.376;2023-05-20T02:58:28;25.33;24.33;15.33
72307;PMS5003;60257;42.638;23.376;2023-05-20T03:00:54;28.67;27.00;14.67
72307;PMS5003;60257;42.638;23.376;2023-05-20T03:03:22;25.33;25.33;17.67
72307;PMS5003;60257;42.638;23.376;2023-05-20T03:05:49;28.00;24.67;15.67
72307;PMS5003;60257;42.638;23.376;2023-05-20T03:08:17;29.00;28.00;18.00
72307;PMS5003;60257;42.638;23.376;2023-05-20T03:10:44;27.67;25.67;16.00
72307;PMS5003;60257;42.638;23.376;2023-05-20T03:13:09;24.33;24.33;17.00
72307;PMS5003;60257;42.638;23.376;2023-05-20T03:15:38;35.00;29.67;18.00
72307;PMS5003;60257;42.638;23.376;2023-05-20T03:18:04;33.00;28.67;17.33
72307;PMS5003;60257;42.638;23.376;2023-05-20T03:20:31;31.00;29.33;19.67
72307;PMS5003;60257;42.638;23.376;2023-05-20T03:22:56;28.00;28.00;17.33
72307;PMS5003;60257;42.638;23.376;2023-05-20T03:25:23;30.00;29.00;17.33
72307;PMS5003;60257;42.638;23.376;2023-05-20T03:27:50;33.33;30.00;18.00
72307;PMS5003;60257;42.638;23.376;2023-05-20T03:30:16;22.67;21.67;12.33
72307;PMS5003;60257;42.638;23.376;2023-05-20T03:32:41;25.67;25.67;16.67
72307;PMS5003;60257;42.638;23.376;2023-05-20T03:35:07;30.00;30.00;18.33
72307;PMS5003;60257;42.638;23.376;2023-05-20T03:37:33;28.33;27.67;18.33
72307;PMS5003;60257;42.638;23.376;2023-05-20T03:39:59;28.33;28.33;16.33
72307;PMS5003;60257;42.638;23.376;2023-05-20T03:42:28;28.67;26.00;17.00
72307;PMS5003;60257;42.638;23.376;2023-05-20T03:44:53;30.00;28.33;18.00
72307;PMS5003;60257;42.638;23.376;2023-05-20T03:47:18;35.00;31.67;17.00
72307;PMS5003;60257;42.638;23.376;2023-05-20T03:49:44;18.00;17.33;12.33
72307;PMS5003;60257;42.638;23.376;2023-05-20T03:52:10;31.33;27.00;18.00
72307;PMS5003;60257;42.638;23.376;2023-05-20T03:54:35;26.00;26.00;16.00
72307;PMS5003;60257;42.638;23.376;2023-05-20T03:57:01;24.00;22.00;15.00
72307;PMS5003;60257;42.638;23.376;2023-05-20T03:59:27;17.00;16.33;14.00
72307;PMS5003;60257;42.638;23.376;2023-05-20T04:01:53;22.00;19.00;14.33
72307;PMS5003;60257;42.638;23.376;2023-05-20T04:04:18;21.67;21.67;14.00
72307;PMS5003;60257;42.638;23.376;2023-05-20T04:06:44;25.00;25.00;17.00
72307;PMS5003;60257;42.638;23.376;2023-05-20T04:09:10;22.00;22.00;14.67
72307;PMS5003;60257;42.638;23.376;2023-05-20T04:11:35;21.67;21.00;12.67
72307;PMS5003;60257;42.638;23.376;2023-05-20T04:14:01;22.00;22.00;14.00
72307;PMS5003;60257;42.638;23.376;2023-05-20T04:16:27;19.67;19.67;14.67
72307;PMS5003;60257;42.638;23.376;2023-05-20T04:18:53;21.00;21.00;13.33
72307;PMS5003;60257;42.638;23.376;2023-05-20T04:21:19;12.67;12.67;9.00
72307;PMS5003;60257;42.638;23.376;2023-05-20T04:23:45;26.67;25.67;15.33
72307;PMS5003;60257;42.638;23.376;2023-05-20T04:26:11;33.67;33.33;20.33
72307;PMS5003;60257;42.638;23.376;2023-05-20T04:28:36;19.67;19.67;12.00
72307;PMS5003;60257;42.638;23.376;2023-05-20T04:31:03;18.00;18.00;9.33
72307;PMS5003;60257;42.638;23.376;2023-05-20T04:33:29;19.00;17.00;10.00
72307;PMS5003;60257;42.638;23.376;2023-05-20T04:35:55;22.67;20.67;12.00
72307;PMS5003;60257;42.638;23.376;2023-05-20T04:38:25;28.67;23.67;13.00
72307;PMS5003;60257;42.638;23.376;2023-05-20T04:40:59;23.00;21.67;12.00
72307;PMS5003;60257;42.638;23.376;2023-05-20T04:43:25;20.33;20.33;13.33
72307;PMS5003;60257;42.638;23.376;2023-05-20T04:45:56;23.33;20.00;14.00
72307;PMS5003;60257;42.638;23.376;2023-05-20T04:48:22;29.33;25.67;17.00
72307;PMS5003;60257;42.638;23.376;2023-05-20T04:50:48;23.00;23.00;15.00
72307;PMS5003;60257;42.638;23.376;2023-05-20T04:53:17;23.33;23.33;14.67
72307;PMS5003;60257;42.638;23.376;2023-05-20T04:55:44;20.00;20.00;12.67
72307;PMS5003;60257;42.638;23.376;2023-05-20T04:58:10;15.33;15.33;8.33
72307;PMS5003;60257;42.638;23.376;2023-05-20T05:00:42;26.33;25.00;16.33
72307;PMS5003;60257;42.638;23.376;2023-05-20T05:03:09;29.00;28.00;18.00
72307;PMS5003;60257;42.638;23.376;2023-05-20T05:05:37;23.67;23.67;14.67
72307;PMS5003;60257;42.638;23.376;2023-05-20T05:08:03;22.33;22.33;15.33
72307;PMS5003;60257;42.638;23.376;2023-05-20T05:10:30;25.00;23.67;14.00
72307;PMS5003;60257;42.638;23.376;2023-05-20T05:12:56;21.67;21.67;18.00
72307;PMS5003;60257;42.638;23.376;2023-05-20T05:15:21;22.00;22.00;14.67
72307;PMS5003;60257;42.638;23.376;2023-05-20T05:17:47;23.33;22.00;12.67
72307;PMS5003;60257;42.638;23.376;2023-05-20T05:20:12;24.33;24.33;18.00
72307;PMS5003;60257;42.638;23.376;2023-05-20T05:22:38;28.67;27.33;17.00
72307;PMS5003;60257;42.638;23.376;2023-05-20T05:25:05;25.00;25.00;15.67
72307;PMS5003;60257;42.638;23.376;2023-05-20T05:27:32;26.00;26.00;17.00
72307;PMS5003;60257;42.638;23.376;2023-05-20T05:29:59;25.33;23.33;16.00
72307;PMS5003;60257;42.638;23.376;2023-05-20T05:32:24;25.67;24.67;17.00
72307;PMS5003;60257;42.638;23.376;2023-05-20T05:34:50;36.67;34.33;22.33
72307;PMS5003;60257;42.638;23.376;2023-05-20T05:37:15;30.00;30.00;18.00
72307;PMS5003;60257;42.638;23.376;2023-05-20T05:39:41;28.00;27.67;20.00
72307;PMS5003;60257;42.638;23.376;2023-05-20T05:42:06;25.67;25.67;17.67
72307;PMS5003;60257;42.638;23.376;2023-05-20T05:44:31;26.67;26.67;16.00
72307;PMS5003;60257;42.638;23.376;2023-05-20T05:46:57;29.00;27.67;18.67
72307;PMS5003;60257;42.638;23.376;2023-05-20T05:49:23;28.33;27.33;17.33
72307;PMS5003;60257;42.638;23.376;2023-05-20T05:51:51;26.33;25.33;16.00
72307;PMS5003;60257;42.638;23.376;2023-05-20T05:54:16;26.33;25.67;16.00
72307;PMS5003;60257;42.638;23.376;2023-05-20T05:56:42;67.33;54.33;33.67
72307;PMS5003;60257;42.638;23.376;2023-05-20T05:59:07;23.00;21.67;16.67
72307;PMS5003;60257;42.638;23.376;2023-05-20T06:01:33;24.00;23.00;13.67
72307;PMS5003;60257;42.638;23.376;2023-05-20T06:03:58;17.75;17.25;12.50
72307;PMS5003;60257;42.638;23.376;2023-05-20T06:06:24;23.67;23.67;17.00
72307;PMS5003;60257;42.638;23.376;2023-05-20T06:08:50;22.00;18.75;15.00
72307;PMS5003;60257;42.638;23.376;2023-05-20T06:11:15;19.50;19.50;13.25
72307;PMS5003;60257;42.638;23.376;2023-05-20T06:13:41;23.25;23.25;14.50
72307;PMS5003;60257;42.638;23.376;2023-05-20T06:16:06;18.00;18.00;12.25
72307;PMS5003;60257;42.638;23.376;2023-05-20T06:18:32;22.25;22.25;14.25
72307;PMS5003;60257;42.638;23.376;2023-05-20T06:20:57;20.00;17.75;11.50
72307;PMS5003;60257;42.638;23.376;2023-05-20T06:23:24;20.00;19.50;14.00
72307;PMS5003;60257;42.638;23.376;2023-05-20T06:25:50;20.50;19.00;12.75
72307;PMS5003;60257;42.638;23.376;2023-05-20T06:28:16;29.67;28.67;20.67
72307;PMS5003;60257;42.638;23.376;2023-05-20T06:30:41;21.50;20.25;14.25
72307;PMS5003;60257;42.638;23.376;2023-05-20T06:33:08;19.25;19.25;12.75
72307;PMS5003;60257;42.638;23.376;2023-05-20T06:35:33;19.75;18.50;14.75
72307;PMS5003;60257;42.638;23.376;2023-05-20T06:37:59;15.50;15.50;10.25
72307;PMS5003;60257;42.638;23.376;2023-05-20T06:40:27;21.25;20.25;13.00
72307;PMS5003;60257;42.638;23.376;2023-05-20T06:42:53;22.25;20.75;12.25
72307;PMS5003;60257;42.638;23.376;2023-05-20T06:45:19;17.50;17.50;14.00
72307;PMS5003;60257;42.638;23.376;2023-05-20T06:47:45;18.25;17.50;12.50
72307;PMS5003;60257;42.638;23.376;2023-05-20T06:50:13;21.50;20.50;12.00
72307;PMS5003;60257;42.638;23.376;2023-05-20T06:52:38;22.25;21.50;14.00
72307;PMS5003;60257;42.638;23.376;2023-05-20T06:55:04;21.75;20.75;13.00
72307;PMS5003;60257;42.638;23.376;2023-05-20T06:57:30;18.00;16.75;12.00
72307;PMS5003;60257;42.638;23.376;2023-05-20T06:59:56;15.50;15.50;10.50
72307;PMS5003;60257;42.638;23.376;2023-05-20T07:02:21;20.50;19.75;12.00
72307;PMS5003;60257;42.638;23.376;2023-05-20T07:04:47;19.00;18.50;13.75
72307;PMS5003;60257;42.638;23.376;2023-05-20T07:07:13;21.00;20.00;13.00
72307;PMS5003;60257;42.638;23.376;2023-05-20T07:09:39;20.75;20.00;13.00
72307;PMS5003;60257;42.638;23.376;2023-05-20T07:12:04;19.75;18.00;13.50
72307;PMS5003;60257;42.638;23.376;2023-05-20T07:14:30;22.00;21.00;12.75
72307;PMS5003;60257;42.638;23.376;2023-05-20T07:16:56;20.75;20.75;13.50
72307;PMS5003;60257;42.638;23.376;2023-05-20T07:19:22;19.75;18.00;14.00
72307;PMS5003;60257;42.638;23.376;2023-05-20T07:21:47;20.00;20.00;14.25
72307;PMS5003;60257;42.638;23.376;2023-05-20T07:24:14;19.50;18.50;12.75
72307;PMS5003;60257;42.638;23.376;2023-05-20T07:26:40;18.25;18.25;11.75
72307;PMS5003;60257;42.638;23.376;2023-05-20T07:29:05;18.50;17.00;10.75
72307;PMS5003;60257;42.638;23.376;2023-05-20T07:31:32;17.00;17.00;11.50
72307;PMS5003;60257;42.638;23.376;2023-05-20T07:33:57;19.25;17.25;12.75
72307;PMS5003;60257;42.638;23.376;2023-05-20T07:36:24;18.25;17.50;11.75
72307;PMS5003;60257;42.638;23.376;2023-05-20T07:38:50;18.50;18.25;13.25
72307;PMS5003;60257;42.638;23.376;2023-05-20T07:41:16;21.25;21.25;16.00
72307;PMS5003;60257;42.638;23.376;2023-05-20T07:43:42;18.25;17.75;12.00
72307;PMS5003;60257;42.638;23.376;2023-05-20T07:46:07;24.75;22.50;14.00
72307;PMS5003;60257;42.638;23.376;2023-05-20T07:48:32;22.25;20.75;13.50
72307;PMS5003;60257;42.638;23.376;2023-05-20T07:50:58;25.00;25.00;15.75
72307;PMS5003;60257;42.638;23.376;2023-05-20T07:53:24;19.25;19.25;12.25
72307;PMS5003;60257;42.638;23.376;2023-05-20T07:55:50;19.25;18.00;13.00
72307;PMS5003;60257;42.638;23.376;2023-05-20T07:58:15;19.00;18.25;11.75
72307;PMS5003;60257;42.638;23.376;2023-05-20T08:00:41;19.50;18.75;11.75
72307;PMS5003;60257;42.638;23.376;2023-05-20T08:03:08;19.25;16.00;9.00
72307;PMS5003;60257;42.638;23.376;2023-05-20T08:05:37;15.25;13.50;10.25
72307;PMS5003;60257;42.638;23.376;2023-05-20T08:08:03;16.00;16.00;9.25
72307;PMS5003;60257;42.638;23.376;2023-05-20T08:10:29;16.75;16.75;12.75
72307;PMS5003;60257;42.638;23.376;2023-05-20T08:12:55;28.00;26.00;17.50
72307;PMS5003;60257;42.638;23.376;2023-05-20T08:15:21;21.75;20.50;12.00
72307;PMS5003;60257;42.638;23.376;2023-05-20T08:17:46;20.00;19.75;13.75
72307;PMS5003;60257;42.638;23.376;2023-05-20T08:20:12;19.75;19.75;13.25
72307;PMS5003;60257;42.638;23.376;2023-05-20T08:22:38;23.50;20.75;14.00
72307;PMS5003;60257;42.638;23.376;2023-05-20T08:25:06;24.50;23.50;17.25
72307;PMS5003;60257;42.638;23.376;2023-05-20T08:27:34;23.00;21.00;14.00
72307;PMS5003;60257;42.638;23.376;2023-05-20T08:30:03;15.75;15.75;10.75
72307;PMS5003;60257;42.638;23.376;2023-05-20T08:32:29;25.75;23.75;16.75
72307;PMS5003;60257;42.638;23.376;2023-05-20T08:34:55;22.00;21.00;14.00
72307;PMS5003;60257;42.638;23.376;2023-05-20T08:37:21;30.25;28.75;17.25
72307;PMS5003;60257;42.638;23.376;2023-05-20T08:39:47;22.75;22.75;14.75
72307;PMS5003;60257;42.638;23.376;2023-05-20T08:42:13;24.75;23.75;14.50
72307;PMS5003;60257;42.638;23.376;2023-05-20T08:44:40;21.50;21.50;12.75
72307;PMS5003;60257;42.638;23.376;2023-05-20T08:47:07;24.75;24.00;16.00
72307;PMS5003;60257;42.638;23.376;2023-05-20T08:49:34;26.50;25.50;15.00
72307;PMS5003;60257;42.638;23.376;2023-05-20T08:52:00;22.25;22.25;16.50
72307;PMS5003;60257;42.638;23.376;2023-05-20T08:54:26;30.75;28.50;16.50
72307;PMS5003;60257;42.638;23.376;2023-05-20T08:57:04;22.00;21.25;14.50
72307;PMS5003;60257;42.638;23.376;2023-05-20T08:59:29;20.25;19.25;12.00
72307;PMS5003;60257;42.638;23.376;2023-05-20T09:01:55;25.25;25.25;17.00
72307;PMS5003;60257;42.638;23.376;2023-05-20T09:04:20;21.75;20.25;13.25
72307;PMS5003;60257;42.638;23.376;2023-05-20T09:06:46;22.25;20.50;16.50
72307;PMS5003;60257;42.638;23.376;2023-05-20T09:09:12;26.75;25.50;15.75
72307;PMS5003;60257;42.638;23.376;2023-05-20T09:11:41;19.75;19.75;13.25
72307;PMS5003;60257;42.638;23.376;2023-05-20T09:14:07;21.75;20.75;11.50
72307;PMS5003;60257;42.638;23.376;2023-05-20T09:16:33;17.50;17.50;11.25
72307;PMS5003;60257;42.638;23.376;2023-05-20T09:18:59;19.25;19.25;13.25
72307;PMS5003;60257;42.638;23.376;2023-05-20T09:21:28;22.00;21.75;15.00
72307;PMS5003;60257;42.638;23.376;2023-05-20T09:23:54;18.50;17.75;10.75
72307;PMS5003;60257;42.638;23.376;2023-05-20T09:26:25;21.50;21.00;13.25
72307;PMS5003;60257;42.638;23.376;2023-05-20T09:28:54;20.25;20.25;13.00
72307;PMS5003;60257;42.638;23.376;2023-05-20T09:31:20;24.50;22.00;15.75
72307;PMS5003;60257;42.638;23.376;2023-05-20T09:33:50;15.75;15.00;11.25
72307;PMS5003;60257;42.638;23.376;2023-05-20T09:36:16;19.00;19.00;13.00
72307;PMS5003;60257;42.638;23.376;2023-05-20T09:38:44;16.75;14.25;11.00
72307;PMS5003;60257;42.638;23.376;2023-05-20T09:41:11;19.50;19.25;12.75
72307;PMS5003;60257;42.638;23.376;2023-05-20T09:43:40;20.50;20.50;14.25
72307;PMS5003;60257;42.638;23.376;2023-05-20T09:46:06;14.75;14.50;11.75
72307;PMS5003;60257;42.638;23.376;2023-05-20T09:48:34;20.75;20.75;13.25
72307;PMS5003;60257;42.638;23.376;2023-05-20T09:51:03;19.50;18.75;12.00
72307;PMS5003;60257;42.638;23.376;2023-05-20T09:53:29;19.75;19.75;13.00
72307;PMS5003;60257;42.638;23.376;2023-05-20T09:55:55;21.75;21.50;14.75
72307;PMS5003;60257;42.638;23.376;2023-05-20T09:58:24;24.50;23.75;15.00
72307;PMS5003;60257;42.638;23.376;2023-05-20T10:00:50;19.00;19.00;14.00
72307;PMS5003;60257;42.638;23.376;2023-05-20T10:03:22;23.00;21.50;15.50
72307;PMS5003;60257;42.638;23.376;2023-05-20T10:06:00;26.25;25.00;15.00
72307;PMS5003;60257;42.638;23.376;2023-05-20T10:08:31;13.00;13.00;7.25
72307;PMS5003;60257;42.638;23.376;2023-05-20T10:16:52;24.00;21.75;14.50
72307;PMS5003;60257;42.638;23.376;2023-05-20T10:19:30;17.00;16.00;11.50
72307;PMS5003;60257;42.638;23.376;2023-05-20T10:22:03;16.00;16.00;12.50
72307;PMS5003;60257;42.638;23.376;2023-05-20T10:24:31;18.00;17.25;12.00
72307;PMS5003;60257;42.638;23.376;2023-05-20T10:26:59;18.00;18.00;12.00
72307;PMS5003;60257;42.638;23.376;2023-05-20T10:29:26;16.25;15.25;10.25
72307;PMS5003;60257;42.638;23.376;2023-05-20T10:31:52;15.00;15.00;8.75
72307;PMS5003;60257;42.638;23.376;2023-05-20T10:34:18;14.00;13.50;9.50
72307;PMS5003;60257;42.638;23.376;2023-05-20T10:36:55;17.25;13.00;8.00
72307;PMS5003;60257;42.638;23.376;2023-05-20T10:39:28;18.75;15.75;10.00
72307;PMS5003;60257;42.638;23.376;2023-05-20T10:42:08;18.25;18.25;10.75
72307;PMS5003;60257;42.638;23.376;2023-05-20T10:44:41;13.00;12.50;6.75
72307;PMS5003;60257;42.638;23.376;2023-05-20T10:47:11;19.50;17.50;10.75
72307;PMS5003;60257;42.638;23.376;2023-05-20T10:49:43;18.75;18.00;10.50
72307;PMS5003;60257;42.638;23.376;2023-05-20T10:52:10;14.00;13.50;9.25
72307;PMS5003;60257;42.638;23.376;2023-05-20T10:54:43;15.50;15.50;10.00
72307;PMS5003;60257;42.638;23.376;2023-05-20T10:57:10;17.00;17.00;10.25
72307;PMS5003;60257;42.638;23.376;2023-05-20T10:59:36;15.50;15.00;10.25
72307;PMS5003;60257;42.638;23.376;2023-05-20T11:02:02;17.00;15.75;10.75
72307;PMS5003;60257;42.638;23.376;2023-05-20T11:04:28;18.00;17.25;11.25
72307;PMS5003;60257;42.638;23.376;2023-05-20T11:06:54;17.25;16.25;9.50
72307;PMS5003;60257;42.638;23.376;2023-05-20T11:09:21;16.00;15.50;10.25
72307;PMS5003;60257;42.638;23.376;2023-05-20T11:11:46;18.25;16.75;9.00
72307;PMS5003;60257;42.638;23.376;2023-05-20T11:14:13;20.00;18.00;10.25
72307;PMS5003;60257;42.638;23.376;2023-05-20T11:16:39;19.75;17.75;12.00
72307;PMS5003;60257;42.638;23.376;2023-05-20T11:19:06;14.75;12.50;7.75
72307;PMS5003;60257;42.638;23.376;2023-05-20T11:21:32;17.50;15.75;9.25
72307;PMS5003;60257;42.638;23.376;2023-05-20T11:23:59;17.50;17.50;12.50
72307;PMS5003;60257;42.638;23.376;2023-05-20T11:26:25;16.00;16.00;10.00
72307;PMS5003;60257;42.638;23.376;2023-05-20T11:28:50;16.25;16.25;11.25
72307;PMS5003;60257;42.638;23.376;2023-05-20T11:31:16;22.75;19.00;10.25
72307;PMS5003;60257;42.638;23.376;2023-05-20T11:33:42;15.50;15.50;10.50
72307;PMS5003;60257;42.638;23.376;2023-05-20T11:36:08;16.75;16.75;11.00
72307;PMS5003;60257;42.638;23.376;2023-05-20T11:38:35;25.25;23.00;15.75
72307;PMS5003;60257;42.638;23.376;2023-05-20T11:41:00;15.00;14.25;11.25
72307;PMS5003;60257;42.638;23.376;2023-05-20T11:43:26;18.00;17.75;10.75
72307;PMS5003;60257;42.638;23.376;2023-05-20T11:45:52;18.25;15.00;10.75
72307;PMS5003;60257;42.638;23.376;2023-05-20T11:48:19;10.50;10.50;5.00
72307;PMS5003;60257;42.638;23.376;2023-05-20T11:50:46;21.00;21.00;14.50
72307;PMS5003;60257;42.638;23.376;2023-05-20T11:53:15;18.25;17.50;13.00
72307;PMS5003;60257;42.638;23.376;2023-05-20T11:56:04;17.00;16.50;10.75
72307;PMS5003;60257;42.638;23.376;2023-05-20T11:58:29;19.00;19.00;11.50
72307;PMS5003;60257;42.638;23.376;2023-05-20T12:00:55;10.25;10.25;6.00
72307;PMS5003;60257;42.638;23.376;2023-05-20T12:03:20;13.75;13.25;8.00
72307;PMS5003;60257;42.638;23.376;2023-05-20T12:05:46;15.75;13.75;8.00
72307;PMS5003;60257;42.638;23.376;2023-05-20T12:08:12;14.50;14.50;9.25
72307;PMS5003;60257;42.638;23.376;2023-05-20T12:10:38;16.75;16.25;8.25
72307;PMS5003;60257;42.638;23.376;2023-05-20T12:13:03;14.25;13.00;9.25
72307;PMS5003;60257;42.638;23.376;2023-05-20T12:15:32;19.50;18.00;10.75
72307;PMS5003;60257;42.638;23.376;2023-05-20T12:17:58;12.50;12.50;8.50
72307;PMS5003;60257;42.638;23.376;2023-05-20T12:20:25;14.00;14.00;9.00
72307;PMS5003;60257;42.638;23.376;2023-05-20T12:22:50;16.50;15.00;10.75
72307;PMS5003;60257;42.638;23.376;2023-05-20T12:25:16;16.50;12.75;9.25
72307;PMS5003;60257;42.638;23.376;2023-05-20T12:27:43;11.50;11.50;6.00
72307;PMS5003;60257;42.638;23.376;2023-05-20T12:30:16;9.75;8.25;4.00
72307;PMS5003;60257;42.638;23.376;2023-05-20T12:32:43;15.50;13.75;8.50
72307;PMS5003;60257;42.638;23.376;2023-05-20T12:35:09;14.00;13.00;7.50
72307;PMS5003;60257;42.638;23.376;2023-05-20T12:37:36;13.50;12.25;6.50
72307;PMS5003;60257;42.638;23.376;2023-05-20T12:40:03;13.00;13.00;8.25
72307;PMS5003;60257;42.638;23.376;2023-05-20T12:42:39;9.25;9.25;5.00
72307;PMS5003;60257;42.638;23.376;2023-05-20T12:45:06;11.25;11.25;7.25
72307;PMS5003;60257;42.638;23.376;2023-05-20T12:47:33;12.00;12.00;8.00
72307;PMS5003;60257;42.638;23.376;2023-05-20T12:50:00;15.00;13.75;8.50
72307;PMS5003;60257;42.638;23.376;2023-05-20T12:52:26;15.25;13.75;9.50
72307;PMS5003;60257;42.638;23.376;2023-05-20T12:54:55;14.50;14.50;9.25
72307;PMS5003;60257;42.638;23.376;2023-05-20T12:57:21;14.25;12.50;7.00
72307;PMS5003;60257;42.638;23.376;2023-05-20T12:59:47;9.50;9.50;8.00
72307;PMS5003;60257;42.638;23.376;2023-05-20T13:02:13;14.00;14.00;10.00
72307;PMS5003;60257;42.638;23.376;2023-05-20T13:04:39;16.50;13.50;8.75
72307;PMS5003;60257;42.638;23.376;2023-05-20T13:07:04;15.00;15.00;9.75
72307;PMS5003;60257;42.638;23.376;2023-05-20T13:09:30;15.00;14.75;8.75
72307;PMS5003;60257;42.638;23.376;2023-05-20T13:11:56;12.00;12.00;9.25
72307;PMS5003;60257;42.638;23.376;2023-05-20T13:14:22;15.25;15.25;9.00
72307;PMS5003;60257;42.638;23.376;2023-05-20T13:16:48;18.25;15.00;8.25
72307;PMS5003;60257;42.638;23.376;2023-05-20T13:19:14;19.75;19.75;11.75
72307;PMS5003;60257;42.638;23.376;2023-05-20T13:21:39;12.00;12.00;6.00
72307;PMS5003;60257;42.638;23.376;2023-05-20T13:24:05;12.75;12.75;9.00
72307;PMS5003;60257;42.638;23.376;2023-05-20T13:26:30;13.50;13.50;6.50
72307;PMS5003;60257;42.638;23.376;2023-05-20T13:28:56;15.50;15.50;11.00
72307;PMS5003;60257;42.638;23.376;2023-05-20T13:31:23;11.00;11.00;8.00
72307;PMS5003;60257;42.638;23.376;2023-05-20T13:33:48;13.25;13.25;10.00
72307;PMS5003;60257;42.638;23.376;2023-05-20T13:36:14;15.75;14.75;10.75
72307;PMS5003;60257;42.638;23.376;2023-05-20T13:38:39;16.25;15.25;10.00